Sample Charts Sidebar
> Live data! Your data is on the web site for you to access within minutes
 
> Detailed data is easily downloaded as data file, which can be opened with Excel
 
> Charts can be customised if necessary
  Chart 1
 

(A maximum of 50 rows are displayed here. Use "Export Data" to see all rows in the date range.)
Date Collected Temp
(Celcius)
WindChill
(Celcius)
WindSpeed
(km/hr)
Gust
(km/hr)
WindDir
(degrees)
2018-02-21 00:00 18.8 17.7 4 12 16
2018-02-20 23:00 18.8 16.9 5 15 360
2018-02-20 22:00 18.3 17.3 4 12 9
2018-02-20 21:00 18.8 17.9 4 11 10
2018-02-20 20:00 18.7 16.9 5 12 2
2018-02-20 19:00 18.6 17.5 4 12 355
2018-02-20 18:00 18.6 17.9 4 11 20
2018-02-20 17:00 18.7 18.0 3 10 4
2018-02-20 16:00 18.8 17.8 4 13 22
2018-02-20 15:00 18.9 17.6 5 11 23
2018-02-20 14:00 18.9 17.9 4 11 34
2018-02-20 13:00 19.3 18.2 4 12 359
2018-02-20 12:00 19.4 17.4 6 15 28
2018-02-20 11:00 19.3 17.9 5 11 10
2018-02-20 10:00 18.9 17.7 4 10 29
2018-02-20 09:00 19.5 17.5 6 17 16
2018-02-20 08:00 19.0 17.6 5 13 38
2018-02-20 07:00 20.0 17.9 6 18 31
2018-02-20 06:00 20.2 18.0 6 18 19
2018-02-20 05:00 20.0 17.9 6 16 27
2018-02-20 04:00 20.2 17.8 7 15 24
2018-02-20 03:00 20.0 17.7 7 16 23
2018-02-20 02:00 19.7 17.4 6 22 26
2018-02-20 01:00 18.9 16.8 6 13 42
2018-02-20 00:00 17.7 16.8 4 10 42
2018-02-19 23:00 16.6 16.2 3 7 54
2018-02-19 22:00 16.4 16.1 3 6 60
2018-02-19 21:00 16.9 16.4 4 7 58
2018-02-19 20:00 17.3 17.2 3 6 52
2018-02-19 19:00 17.7 17.7 2 4 69
2018-02-19 18:00 18.3 18.3 2 5 50
2018-02-19 17:00 18.9 18.9 2 5 25
2018-02-19 16:00 19.4 19.4 2 5 5
2018-02-19 15:00 19.8 19.7 2 6 21
2018-02-19 14:00 19.6 19.1 3 7 36
2018-02-19 13:00 17.9 16.6 4 9 45
2018-02-19 12:00 16.1 14.4 5 10 46
2018-02-19 11:00 14.0 12.7 4 10 46
2018-02-19 10:00 12.5 10.8 5 9 51
2018-02-19 09:00 10.5 6.7 6 11 42
2018-02-19 08:00 9.0 5.7 6 13 47
2018-02-19 07:00 8.6 7.0 4 9 54
2018-02-19 06:00 8.5 7.2 4 8 57
2018-02-19 05:00 8.8 7.7 4 8 51
2018-02-19 04:00 9.4 7.5 4 10 42
2018-02-19 03:00 9.2 8.8 3 6 41
2018-02-19 02:00 9.7 9.7 2 5 47
2018-02-19 01:00 10.9 10.9 2 5 56
2018-02-19 00:00 11.8 11.8 2 5 56
2018-02-18 23:00 12.1 12.1 2 5 68